createdAt,value
2023-03-14T00:01:14.445Z,14.70
2023-03-14T00:03:42.794Z,14.60
2023-03-14T00:06:12.062Z,14.60
2023-03-14T00:08:39.684Z,14.50
2023-03-14T00:11:09.432Z,14.50
2023-03-14T00:13:38.524Z,14.40
2023-03-14T00:16:08.756Z,14.40
2023-03-14T00:18:36.602Z,14.30
2023-03-14T00:21:06.206Z,14.30
2023-03-14T00:23:36.390Z,14.20
2023-03-14T00:26:06.571Z,14.20
2023-03-14T00:28:34.336Z,14.20
2023-03-14T00:31:06.530Z,14.20
2023-03-14T00:33:35.217Z,14.20
2023-03-14T00:36:06.721Z,14.10
2023-03-14T00:38:34.706Z,14.10
2023-03-14T00:41:05.680Z,14.00
2023-03-14T00:43:33.345Z,14.00
2023-03-14T00:46:00.980Z,14.00
2023-03-14T00:48:30.107Z,14.00
2023-03-14T00:50:57.956Z,13.90
2023-03-14T00:53:25.606Z,13.80
2023-03-14T00:55:53.198Z,13.70
2023-03-14T00:58:21.096Z,13.60
2023-03-14T01:00:48.937Z,13.60
2023-03-14T01:03:16.991Z,13.60
2023-03-14T01:05:46.139Z,13.50
2023-03-14T01:08:13.823Z,13.60
2023-03-14T01:10:42.381Z,13.60
2023-03-14T01:13:10.802Z,13.60
2023-03-14T01:15:39.291Z,13.60
2023-03-14T01:18:07.360Z,13.60
2023-03-14T01:20:35.029Z,13.60
2023-03-14T01:23:04.166Z,13.50
2023-03-14T01:25:32.653Z,13.50
2023-03-14T01:28:01.846Z,13.50
2023-03-14T01:30:30.144Z,13.50
2023-03-14T01:32:57.841Z,13.50
2023-03-14T01:35:25.547Z,13.40
2023-03-14T01:37:53.132Z,13.50
2023-03-14T01:40:24.996Z,13.40
2023-03-14T01:42:56.997Z,13.40
2023-03-14T01:46:02.551Z,13.40
2023-03-14T01:48:36.778Z,13.40
2023-03-14T01:51:07.908Z,13.40
2023-03-14T01:53:40.580Z,13.40
2023-03-14T01:56:11.969Z,13.40
2023-03-14T01:58:42.208Z,13.30
2023-03-14T02:01:10.988Z,13.10
2023-03-14T02:03:45.769Z,13.10
2023-03-14T02:06:18.391Z,13.20
2023-03-14T02:08:50.611Z,13.20
2023-03-14T02:11:29.829Z,13.20
2023-03-14T02:14:08.776Z,13.10
2023-03-14T02:17:04.501Z,13.10
2023-03-14T02:20:08.926Z,13.00
2023-03-14T02:22:43.066Z,13.00
2023-03-14T02:25:18.009Z,13.10
2023-03-14T02:27:49.216Z,13.10
2023-03-14T02:30:19.992Z,13.10
2023-03-14T02:32:53.393Z,13.10
2023-03-14T02:35:23.966Z,13.10
2023-03-14T02:37:58.127Z,13.10
2023-03-14T02:40:30.017Z,13.20
2023-03-14T02:42:59.932Z,13.20
2023-03-14T02:45:40.554Z,13.20
2023-03-14T02:48:15.083Z,13.20
2023-03-14T02:50:44.938Z,13.30
2023-03-14T02:53:15.684Z,13.30
2023-03-14T02:55:47.787Z,13.30
2023-03-14T02:58:21.114Z,13.30
2023-03-14T03:00:53.822Z,13.30
2023-03-14T03:03:22.497Z,13.30
2023-03-14T03:05:51.860Z,13.30
2023-03-14T03:08:21.279Z,13.30
2023-03-14T03:10:50.301Z,13.30
2023-03-14T03:13:21.115Z,13.40
2023-03-14T03:15:54.025Z,13.40
2023-03-14T03:18:22.564Z,13.30
2023-03-14T03:20:50.880Z,13.30
2023-03-14T03:23:19.161Z,13.30
2023-03-14T03:25:50.763Z,13.30
2023-03-14T03:28:20.625Z,13.30
2023-03-14T03:30:49.265Z,13.30
2023-03-14T03:33:17.784Z,13.30
2023-03-14T03:35:49.011Z,13.20
2023-03-14T03:38:21.521Z,13.20
2023-03-14T03:40:52.542Z,13.20
2023-03-14T03:43:23.534Z,13.10
2023-03-14T03:45:51.969Z,13.20
2023-03-14T03:48:21.574Z,13.20
2023-03-14T03:50:49.947Z,13.30
2023-03-14T03:53:32.685Z,13.20
2023-03-14T03:56:04.211Z,13.30
2023-03-14T03:58:34.180Z,13.20
2023-03-14T04:01:03.900Z,13.20
2023-03-14T04:03:32.230Z,13.10
2023-03-14T04:06:01.757Z,13.10
2023-03-14T04:08:30.378Z,13.00
2023-03-14T04:11:00.439Z,13.00
2023-03-14T04:13:59.528Z,12.90
2023-03-14T04:16:29.449Z,12.90
2023-03-14T04:19:04.586Z,12.90
2023-03-14T04:21:33.935Z,12.90
2023-03-14T04:24:02.085Z,12.80
2023-03-14T04:26:33.630Z,12.70
2023-03-14T04:29:03.518Z,12.80
2023-03-14T04:31:32.480Z,12.80
2023-03-14T04:34:00.671Z,12.80
2023-03-14T04:36:37.935Z,12.70
2023-03-14T04:39:10.898Z,12.80
2023-03-14T04:41:45.610Z,12.80
2023-03-14T04:44:15.639Z,12.80
2023-03-14T04:46:44.246Z,12.80
2023-03-14T04:49:25.892Z,12.80
2023-03-14T04:51:54.192Z,12.80
2023-03-14T04:54:23.895Z,12.90
2023-03-14T04:56:56.693Z,13.00
2023-03-14T04:59:27.681Z,13.00
2023-03-14T05:01:59.915Z,13.00
2023-03-14T05:05:07.524Z,13.00
2023-03-14T05:08:11.000Z,13.00
2023-03-14T05:10:59.037Z,13.00
2023-03-14T05:13:40.401Z,13.00
2023-03-14T05:16:28.890Z,13.00
2023-03-14T05:19:03.455Z,13.00
2023-03-14T05:22:06.945Z,13.00
2023-03-14T05:25:01.284Z,12.90
2023-03-14T05:28:01.564Z,12.90
2023-03-14T05:30:48.041Z,12.80
2023-03-14T05:33:39.192Z,12.80
2023-03-14T05:36:30.504Z,12.70
2023-03-14T05:39:19.325Z,12.70
2023-03-14T05:42:07.767Z,12.70
2023-03-14T05:44:56.379Z,12.80
2023-03-14T05:47:43.257Z,12.80
2023-03-14T05:50:31.527Z,12.90
2023-03-14T05:53:18.559Z,13.00
2023-03-14T05:56:05.680Z,12.90
2023-03-14T05:58:49.668Z,12.90
2023-03-14T06:01:44.959Z,12.90
2023-03-14T06:04:20.063Z,12.90
2023-03-14T06:06:54.936Z,13.00
2023-03-14T06:09:24.649Z,13.10
2023-03-14T06:11:56.007Z,13.10
2023-03-14T06:14:25.188Z,13.10
2023-03-14T06:16:54.365Z,13.10
2023-03-14T06:19:24.940Z,13.20
2023-03-14T06:21:54.781Z,13.20
2023-03-14T06:24:24.364Z,13.30
2023-03-14T06:26:53.999Z,13.30
2023-03-14T06:29:22.468Z,13.30
2023-03-14T06:31:50.733Z,13.30
2023-03-14T06:34:20.472Z,13.20
2023-03-14T06:36:48.738Z,13.10
2023-03-14T06:39:18.557Z,13.20
2023-03-14T06:41:50.891Z,13.20
2023-03-14T06:44:20.118Z,13.20
2023-03-14T06:46:48.690Z,13.20
2023-03-14T06:49:16.859Z,13.20
2023-03-14T06:51:45.584Z,13.20
2023-03-14T06:54:18.488Z,13.20
2023-03-14T06:56:46.704Z,13.30
2023-03-14T06:59:15.713Z,13.50
2023-03-14T07:01:49.436Z,13.50
2023-03-14T07:04:26.931Z,13.60
2023-03-14T07:06:55.352Z,13.60
2023-03-14T07:09:24.913Z,13.60
2023-03-14T07:11:58.682Z,13.60
2023-03-14T07:14:27.245Z,13.60
2023-03-14T07:16:56.284Z,13.60
2023-03-14T07:19:25.511Z,13.60
2023-03-14T07:21:53.794Z,13.60
2023-03-14T07:24:27.363Z,13.60
2023-03-14T07:26:55.546Z,13.50
2023-03-14T07:29:23.777Z,13.50
2023-03-14T07:31:52.176Z,13.60
2023-03-14T07:34:22.057Z,13.60
2023-03-14T07:36:57.855Z,13.60
2023-03-14T07:39:30.977Z,13.60
2023-03-14T07:42:07.403Z,13.60
2023-03-14T07:44:38.513Z,13.70
2023-03-14T07:47:06.722Z,13.70
2023-03-14T07:49:34.862Z,13.80
2023-03-14T07:52:02.952Z,13.80
2023-03-14T07:54:32.593Z,13.90
2023-03-14T07:57:01.899Z,14.00
2023-03-14T07:59:30.183Z,14.20
2023-03-14T08:01:58.470Z,14.20
2023-03-14T08:04:26.535Z,14.30
2023-03-14T08:06:55.752Z,14.30
2023-03-14T08:09:23.664Z,14.30
2023-03-14T08:11:53.185Z,14.30
2023-03-14T08:14:21.302Z,14.30
2023-03-14T08:16:49.274Z,14.30
2023-03-14T08:19:17.206Z,14.30
2023-03-14T08:21:45.340Z,14.30
2023-03-14T08:24:13.318Z,14.30
2023-03-14T08:26:41.423Z,14.40
2023-03-14T08:29:10.756Z,14.40
2023-03-14T08:31:38.805Z,14.50
2023-03-14T08:34:07.993Z,14.50
2023-03-14T08:36:36.941Z,14.50
2023-03-14T08:39:05.271Z,14.50
2023-03-14T08:41:33.300Z,14.60
2023-03-14T08:44:01.312Z,14.60
2023-03-14T08:46:31.508Z,14.70
2023-03-14T08:48:59.532Z,14.70
2023-03-14T08:51:27.500Z,14.70
2023-03-14T08:53:55.415Z,14.80
2023-03-14T08:56:25.824Z,14.90
2023-03-14T08:58:54.051Z,15.00
2023-03-14T09:01:25.386Z,15.00
2023-03-14T09:03:54.824Z,15.00
2023-03-14T09:06:22.972Z,15.00
2023-03-14T09:08:50.921Z,15.00
2023-03-14T09:11:20.092Z,15.00
2023-03-14T09:13:48.321Z,15.00
2023-03-14T09:16:17.028Z,15.00
2023-03-14T09:18:45.033Z,15.00
2023-03-14T09:21:14.371Z,15.00
2023-03-14T09:23:42.294Z,15.00
2023-03-14T09:26:09.949Z,14.90
2023-03-14T09:28:38.497Z,14.90
2023-03-14T09:31:11.127Z,14.90
2023-03-14T09:33:39.263Z,14.90
2023-03-14T09:36:08.934Z,15.00
2023-03-14T09:38:38.274Z,15.00
2023-03-14T09:41:15.689Z,15.00
2023-03-14T09:43:45.588Z,15.00
2023-03-14T09:46:15.385Z,15.10
2023-03-14T09:48:44.413Z,15.10
2023-03-14T09:51:16.522Z,15.10
2023-03-14T09:53:48.076Z,15.10
2023-03-14T09:56:20.843Z,15.10
2023-03-14T09:58:53.875Z,15.20
2023-03-14T10:01:26.572Z,15.20
2023-03-14T10:03:57.991Z,15.30
2023-03-14T10:06:28.482Z,15.30
2023-03-14T10:08:58.085Z,15.40
2023-03-14T10:11:26.508Z,15.40
2023-03-14T10:14:13.929Z,15.40
2023-03-14T10:16:44.832Z,15.50
2023-03-14T10:19:15.097Z,15.60
2023-03-14T10:21:44.803Z,15.70
2023-03-14T10:24:21.681Z,15.70
2023-03-14T10:26:51.384Z,15.90
2023-03-14T10:29:19.119Z,15.90
2023-03-14T10:31:53.804Z,16.00
2023-03-14T10:34:26.322Z,16.00
2023-03-14T10:36:56.040Z,16.00
2023-03-14T10:39:44.820Z,16.00
2023-03-14T10:42:22.294Z,16.00
2023-03-14T10:44:56.242Z,15.50
2023-03-14T10:47:29.610Z,14.80
2023-03-14T10:49:58.663Z,14.20
2023-03-14T10:52:50.818Z,13.80
2023-03-14T10:55:17.249Z,13.70
2023-03-14T10:57:45.115Z,13.30
2023-03-14T11:00:20.628Z,13.10
2023-03-14T11:03:09.426Z,13.00
2023-03-14T11:05:43.381Z,13.10
2023-03-14T11:08:16.357Z,13.20
2023-03-14T11:10:49.384Z,13.30
2023-03-14T11:13:23.332Z,13.50
2023-03-14T11:16:05.024Z,13.90
2023-03-14T11:18:58.447Z,14.20
2023-03-14T11:21:34.115Z,14.50
2023-03-14T11:24:35.018Z,15.00
2023-03-14T11:27:11.411Z,15.50
2023-03-14T11:29:41.904Z,15.80
2023-03-14T11:32:15.173Z,16.00
2023-03-14T11:34:51.816Z,15.80
2023-03-14T11:37:25.302Z,15.90
2023-03-14T11:39:59.405Z,16.10
2023-03-14T11:42:30.416Z,16.40
2023-03-14T11:45:01.735Z,16.70
2023-03-14T11:47:34.417Z,16.80
2023-03-14T11:50:07.640Z,17.00
2023-03-14T11:52:40.940Z,17.00
2023-03-14T11:55:19.033Z,17.10
2023-03-14T11:57:52.191Z,17.30
2023-03-14T12:00:23.057Z,17.50
2023-03-14T12:02:58.499Z,17.50
2023-03-14T12:05:50.864Z,17.40
2023-03-14T12:08:43.446Z,17.10
2023-03-14T12:11:19.693Z,16.70
2023-03-14T12:13:51.372Z,16.60
2023-03-14T12:16:40.874Z,16.50
2023-03-14T12:19:32.228Z,16.30
2023-03-14T12:22:06.936Z,16.40
2023-03-14T12:24:37.316Z,16.30
2023-03-14T12:27:11.045Z,16.20
2023-03-14T12:30:21.675Z,16.10
2023-03-14T12:33:20.710Z,16.00
2023-03-14T12:35:51.504Z,15.90
2023-03-14T12:38:29.440Z,16.00
2023-03-14T12:41:03.084Z,16.10
2023-03-14T12:43:34.272Z,16.00
2023-03-14T12:46:28.063Z,16.00
2023-03-14T12:48:58.289Z,16.00
2023-03-14T12:51:36.067Z,16.20
2023-03-14T12:54:37.595Z,16.30
2023-03-14T12:57:29.478Z,16.30
2023-03-14T12:59:59.443Z,16.50
2023-03-14T13:02:30.295Z,16.40
2023-03-14T13:05:06.954Z,16.20
2023-03-14T13:07:36.503Z,16.10
2023-03-14T13:10:19.296Z,16.20
2023-03-14T13:12:58.414Z,16.20
2023-03-14T13:15:31.183Z,16.20
2023-03-14T13:18:14.520Z,16.10
2023-03-14T13:20:47.685Z,16.00
2023-03-14T13:23:22.847Z,15.90
2023-03-14T13:25:51.311Z,15.80
2023-03-14T13:28:20.191Z,15.80
2023-03-14T13:30:52.495Z,15.70
2023-03-14T13:33:24.042Z,15.70
2023-03-14T13:35:57.557Z,15.70
2023-03-14T13:38:27.526Z,15.80
2023-03-14T13:41:00.826Z,15.80
2023-03-14T13:43:32.481Z,16.00
2023-03-14T13:46:05.613Z,16.10
2023-03-14T13:48:40.534Z,16.10
2023-03-14T13:51:12.081Z,16.30
2023-03-14T13:53:45.655Z,16.20
2023-03-14T13:56:14.824Z,16.10
2023-03-14T13:58:44.108Z,16.10
2023-03-14T14:01:18.532Z,16.20
2023-03-14T14:03:52.353Z,16.20
2023-03-14T14:06:39.469Z,16.20
2023-03-14T14:09:16.623Z,16.10
2023-03-14T14:12:07.509Z,16.10
2023-03-14T14:14:43.328Z,16.00
2023-03-14T14:17:14.853Z,16.10
2023-03-14T14:19:45.961Z,16.10
2023-03-14T14:22:14.396Z,16.30
2023-03-14T14:24:42.784Z,16.00
2023-03-14T14:27:14.756Z,15.80
2023-03-14T14:29:43.497Z,15.60
2023-03-14T14:32:15.024Z,15.60
2023-03-14T14:34:51.864Z,15.70
2023-03-14T14:37:22.517Z,15.90
2023-03-14T14:39:51.921Z,15.90
2023-03-14T14:42:25.180Z,16.20
2023-03-14T14:44:54.296Z,16.60
2023-03-14T14:47:24.725Z,16.30
2023-03-14T14:49:56.001Z,16.10
2023-03-14T14:52:36.069Z,15.90
2023-03-14T14:55:17.533Z,15.90
2023-03-14T14:57:52.085Z,15.80
2023-03-14T15:00:22.677Z,15.70
2023-03-14T15:02:55.272Z,15.50
2023-03-14T15:05:27.825Z,15.40
2023-03-14T15:07:55.954Z,15.30
2023-03-14T15:10:26.431Z,15.20
2023-03-14T15:12:54.861Z,15.20
2023-03-14T15:15:22.896Z,15.20
2023-03-14T15:17:51.228Z,15.20
2023-03-14T15:20:34.296Z,15.10
2023-03-14T15:23:03.945Z,14.90
2023-03-14T15:25:53.505Z,14.80
2023-03-14T15:28:21.674Z,14.80
2023-03-14T15:30:50.497Z,14.90
2023-03-14T15:33:18.910Z,15.00
2023-03-14T15:35:47.063Z,15.00
2023-03-14T15:38:18.323Z,15.00
2023-03-14T15:40:49.578Z,15.00
2023-03-14T15:43:18.380Z,15.00
2023-03-14T15:45:46.596Z,15.00
2023-03-14T15:48:17.170Z,15.00
2023-03-14T15:50:45.567Z,14.90
2023-03-14T15:53:14.331Z,14.80
2023-03-14T15:55:44.003Z,14.70
2023-03-14T15:58:20.644Z,14.60
2023-03-14T16:01:04.695Z,14.40
2023-03-14T16:03:32.608Z,14.40
2023-03-14T16:06:00.730Z,14.40
2023-03-14T16:08:32.836Z,14.40
2023-03-14T16:11:02.648Z,14.40
2023-03-14T16:13:30.846Z,14.40
2023-03-14T16:16:01.396Z,14.40
2023-03-14T16:18:31.008Z,14.40
2023-03-14T16:21:00.862Z,14.40
2023-03-14T16:23:30.130Z,14.40
2023-03-14T16:25:58.562Z,14.40
2023-03-14T16:28:58.579Z,14.50
2023-03-14T16:31:27.008Z,14.60
2023-03-14T16:33:55.270Z,14.60
2023-03-14T16:36:23.302Z,14.60
2023-03-14T16:38:51.868Z,14.60
2023-03-14T16:41:20.831Z,14.60
2023-03-14T16:43:54.646Z,14.60
2023-03-14T16:46:23.218Z,14.60
2023-03-14T16:48:51.625Z,14.70
2023-03-14T16:51:20.255Z,14.60
2023-03-14T16:53:49.903Z,14.60
2023-03-14T16:56:19.366Z,14.60
2023-03-14T16:58:48.520Z,14.50
2023-03-14T17:01:19.478Z,14.50
2023-03-14T17:03:49.275Z,14.60
2023-03-14T17:06:19.801Z,14.50
2023-03-14T17:08:48.166Z,14.60
2023-03-14T17:11:16.484Z,14.50
2023-03-14T17:13:44.896Z,14.50
2023-03-14T17:16:13.415Z,14.50
2023-03-14T17:18:43.398Z,14.50
2023-03-14T17:21:11.676Z,14.60
2023-03-14T17:23:40.518Z,14.60
2023-03-14T17:26:08.966Z,14.60
2023-03-14T17:28:39.629Z,14.60
2023-03-14T17:31:09.966Z,14.50
2023-03-14T17:33:38.621Z,14.50
2023-03-14T17:36:09.990Z,14.50
2023-03-14T17:38:39.127Z,14.50
2023-03-14T17:41:10.206Z,14.40
2023-03-14T17:43:39.125Z,14.40
2023-03-14T17:46:14.763Z,14.50
2023-03-14T17:48:44.551Z,14.40
2023-03-14T17:51:16.019Z,14.40
2023-03-14T17:53:44.859Z,14.40
2023-03-14T17:56:13.341Z,14.30
2023-03-14T17:58:44.401Z,14.30
2023-03-14T18:01:14.971Z,14.40
2023-03-14T18:03:45.214Z,14.40
2023-03-14T18:06:16.788Z,14.40
2023-03-14T18:08:46.995Z,14.40
2023-03-14T18:11:15.855Z,14.40
2023-03-14T18:13:44.213Z,14.30
2023-03-14T18:16:16.735Z,14.20
2023-03-14T18:18:48.679Z,14.20
2023-03-14T18:21:19.303Z,14.10
2023-03-14T18:23:48.922Z,14.10
2023-03-14T18:26:17.453Z,14.10
2023-03-14T18:28:47.442Z,14.10
2023-03-14T18:31:18.354Z,14.10
2023-03-14T18:33:48.249Z,14.10
2023-03-14T18:36:18.818Z,14.20
2023-03-14T18:38:48.930Z,14.20
2023-03-14T18:41:20.395Z,14.20
2023-03-14T18:43:48.821Z,14.20
2023-03-14T18:46:17.516Z,14.20
2023-03-14T18:48:45.959Z,14.20
2023-03-14T18:51:16.125Z,14.20
2023-03-14T18:53:47.379Z,14.10
2023-03-14T18:56:16.822Z,14.00
2023-03-14T18:58:45.376Z,14.00
2023-03-14T19:01:14.238Z,14.00
2023-03-14T19:03:42.806Z,14.00
2023-03-14T19:06:12.461Z,14.10
2023-03-14T19:08:45.044Z,14.10
2023-03-14T19:11:15.723Z,14.10
2023-03-14T19:13:44.671Z,14.10
2023-03-14T19:16:14.377Z,14.10
2023-03-14T19:18:43.425Z,14.00
2023-03-14T19:21:13.383Z,14.00
2023-03-14T19:23:44.255Z,14.00
2023-03-14T19:26:16.580Z,14.00
2023-03-14T19:28:45.111Z,14.00
2023-03-14T19:31:14.428Z,14.00
2023-03-14T19:33:43.062Z,14.00
2023-03-14T19:36:22.805Z,14.00
2023-03-14T19:38:51.953Z,14.00
2023-03-14T19:41:23.148Z,14.00
2023-03-14T19:43:52.087Z,14.00
2023-03-14T19:46:20.454Z,14.00
2023-03-14T19:48:49.288Z,14.00
2023-03-14T19:51:17.798Z,14.00
2023-03-14T19:53:46.485Z,14.00
2023-03-14T19:56:14.884Z,14.00
2023-03-14T19:58:44.825Z,14.00
2023-03-14T20:01:13.344Z,14.00
2023-03-14T20:03:42.340Z,14.00
2023-03-14T20:06:12.858Z,14.00
2023-03-14T20:08:43.567Z,14.00
2023-03-14T20:11:13.224Z,14.00
2023-03-14T20:13:41.741Z,14.00
2023-03-14T20:16:14.379Z,13.90
2023-03-14T20:18:43.330Z,13.90
2023-03-14T20:21:15.889Z,13.80
2023-03-14T20:23:44.788Z,13.80
2023-03-14T20:26:13.257Z,13.80
2023-03-14T20:28:42.934Z,13.70
2023-03-14T20:31:13.135Z,13.70
2023-03-14T20:33:43.918Z,13.70
2023-03-14T20:36:13.288Z,13.60
2023-03-14T20:38:56.690Z,13.60
2023-03-14T20:41:25.862Z,13.50
2023-03-14T20:43:54.678Z,13.50
2023-03-14T20:46:24.972Z,13.40
2023-03-14T20:48:53.802Z,13.40
2023-03-14T20:51:23.065Z,13.40
2023-03-14T20:53:51.582Z,13.30
2023-03-14T20:56:19.997Z,13.30
2023-03-14T20:58:48.616Z,13.30
2023-03-14T21:01:17.445Z,13.30
2023-03-14T21:03:48.709Z,13.30
2023-03-14T21:06:17.214Z,13.30
2023-03-14T21:08:45.973Z,13.30
2023-03-14T21:11:14.505Z,13.40
2023-03-14T21:13:42.787Z,13.40
2023-03-14T21:16:11.524Z,13.40
2023-03-14T21:18:39.994Z,13.30
2023-03-14T21:21:10.312Z,13.30
2023-03-14T21:23:38.851Z,13.30
2023-03-14T21:26:10.798Z,13.30
2023-03-14T21:28:40.788Z,13.30
2023-03-14T21:31:12.113Z,13.30
2023-03-14T21:33:40.787Z,13.20
2023-03-14T21:36:11.555Z,13.20
2023-03-14T21:38:39.991Z,13.20
2023-03-14T21:41:09.560Z,13.20
2023-03-14T21:43:38.004Z,13.30
2023-03-14T21:46:06.501Z,13.30
2023-03-14T21:48:34.961Z,13.30
2023-03-14T21:51:05.825Z,13.30
2023-03-14T21:53:36.347Z,13.30
2023-03-14T21:56:05.356Z,13.20
2023-03-14T21:58:35.985Z,13.20
2023-03-14T22:01:07.025Z,13.10
2023-03-14T22:03:35.737Z,13.20
2023-03-14T22:06:04.527Z,13.00
2023-03-14T22:08:33.096Z,12.90
2023-03-14T22:11:06.400Z,12.90
2023-03-14T22:13:34.943Z,12.90
2023-03-14T22:16:03.337Z,12.90
2023-03-14T22:18:32.525Z,12.90
2023-03-14T22:21:00.828Z,12.90
2023-03-14T22:23:28.833Z,13.00
2023-03-14T22:25:56.725Z,13.00
2023-03-14T22:28:28.472Z,13.00
2023-03-14T22:30:56.924Z,13.00
2023-03-14T22:33:24.838Z,12.90
2023-03-14T22:35:53.613Z,12.90
2023-03-14T22:38:21.724Z,12.90
2023-03-14T22:40:49.717Z,12.90
2023-03-14T22:43:18.226Z,12.90
2023-03-14T22:45:47.880Z,12.90
2023-03-14T22:48:15.827Z,12.90
2023-03-14T22:50:43.925Z,12.80
2023-03-14T22:53:11.789Z,12.80
2023-03-14T22:55:39.809Z,12.70
2023-03-14T22:58:08.016Z,12.60
2023-03-14T23:00:36.256Z,12.50
2023-03-14T23:03:06.505Z,12.30
2023-03-14T23:05:34.658Z,12.10
2023-03-14T23:08:02.690Z,12.30
2023-03-14T23:10:33.229Z,12.30
2023-03-14T23:13:01.214Z,12.40
2023-03-14T23:15:29.461Z,12.40
2023-03-14T23:17:57.524Z,12.50
2023-03-14T23:20:27.024Z,12.50
2023-03-14T23:22:54.975Z,12.50
2023-03-14T23:25:22.776Z,12.50
2023-03-14T23:27:54.350Z,12.50
2023-03-14T23:30:22.285Z,12.40
2023-03-14T23:32:50.101Z,12.30
2023-03-14T23:35:18.145Z,12.10
2023-03-14T23:37:49.518Z,11.90
2023-03-14T23:40:18.342Z,11.80
2023-03-14T23:42:48.278Z,11.90
2023-03-14T23:45:16.459Z,12.00
2023-03-14T23:47:44.169Z,12.10
2023-03-14T23:50:12.329Z,12.20
2023-03-14T23:52:40.089Z,12.20
2023-03-14T23:55:10.280Z,12.30
2023-03-14T23:57:38.280Z,12.20
